Time;durP1;ratioP1;P1;durP2;ratioP2;P2;SDS_P1;SDS_P2;PMS_P1;PMS_P2;Temp;Humidity;BMP_temperature;BMP_pressure;BME280_temperature;BME280_humidity;BME280_pressure;Samples;Min_cycle;Max_cycle;Signal;HPM_P1;HPM_P2
2021/11/29 00:00:01;;;;;;;6.03;2.08;;;;;;;1.35;100.00;100671.44;5111063;28;20401;-75
2021/11/29 00:02:27;;;;;;;4.18;1.90;;;;;;;1.39;100.00;100668.00;5108076;28;20028;-74
2021/11/29 00:04:53;;;;;;;2.80;1.83;;;;;;;1.37;100.00;100672.31;5110019;28;20024;-75
2021/11/29 00:07:18;;;;;;;3.90;1.90;;;;;;;1.31;100.00;100664.53;5110920;28;20019;-75
2021/11/29 00:09:43;;;;;;;3.95;2.08;;;;;;;1.26;100.00;100669.69;5111014;28;20031;-74
2021/11/29 00:12:09;;;;;;;2.40;1.88;;;;;;;1.23;100.00;100672.28;5110621;28;20023;-74
2021/11/29 00:14:34;;;;;;;5.30;2.22;;;;;;;1.18;100.00;100661.03;5110310;28;20080;-74
2021/11/29 00:17:00;;;;;;;4.60;1.80;;;;;;;1.11;100.00;100666.19;5110156;28;20034;-76
2021/11/29 00:19:25;;;;;;;5.22;2.00;;;;;;;1.06;100.00;100667.91;5110137;28;20050;-75
2021/11/29 00:21:50;;;;;;;8.07;2.50;;;;;;;1.00;100.00;100673.06;5105487;28;20044;-75
2021/11/29 00:24:16;;;;;;;6.22;2.28;;;;;;;0.93;100.00;100673.88;5110010;28;20089;-74
2021/11/29 00:26:41;;;;;;;5.20;2.28;;;;;;;0.86;100.00;100660.09;5110352;28;20063;-75
2021/11/29 00:29:07;;;;;;;7.50;2.40;;;;;;;0.83;100.00;100660.06;5110602;28;20077;-75
2021/11/29 00:31:32;;;;;;;5.80;2.15;;;;;;;0.81;100.00;100661.78;5109508;28;20397;-74
2021/11/29 00:33:57;;;;;;;4.38;2.60;;;;;;;0.84;100.00;100664.38;5110473;28;20480;-75
2021/11/29 00:36:23;;;;;;;4.93;2.40;;;;;;;0.86;100.00;100662.66;5110524;28;20029;-75
2021/11/29 00:38:48;;;;;;;5.03;2.40;;;;;;;0.86;100.00;100651.50;5108900;28;20051;-76
2021/11/29 00:41:14;;;;;;;5.88;2.70;;;;;;;0.85;100.00;100662.66;5110092;27;20036;-74
2021/11/29 00:43:39;;;;;;;5.95;2.70;;;;;;;0.81;100.00;100669.53;5109977;28;20024;-74
2021/11/29 00:46:04;;;;;;;3.88;2.40;;;;;;;0.77;100.00;100676.41;5109236;28;20059;-74
2021/11/29 00:48:30;;;;;;;3.67;2.55;;;;;;;0.75;100.00;100675.53;5108952;28;20078;-76
2021/11/29 00:50:55;;;;;;;4.88;2.30;;;;;;;0.77;100.00;100663.50;5110094;28;20031;-74
2021/11/29 00:53:20;;;;;;;7.95;2.58;;;;;;;0.83;100.00;100666.97;5109341;28;20362;-75
2021/11/29 00:55:46;;;;;;;4.85;2.20;;;;;;;0.84;100.00;100681.59;5110216;28;20487;-74
2021/11/29 00:58:11;;;;;;;3.60;2.10;;;;;;;0.85;100.00;100685.91;5106641;28;20084;-75
2021/11/29 01:00:38;;;;;;;2.97;2.00;;;;;;;0.88;100.00;100689.38;5109370;28;20032;-75
2021/11/29 01:03:04;;;;;;;3.65;2.15;;;;;;;0.94;100.00;100694.56;5105771;28;20264;-75
2021/11/29 01:05:30;;;;;;;3.97;2.30;;;;;;;0.99;100.00;100727.28;5106303;28;20023;-75
2021/11/29 01:07:56;;;;;;;8.52;2.55;;;;;;;1.01;100.00;100744.53;5103881;28;20141;-75
2021/11/29 01:10:21;;;;;;;6.03;3.53;;;;;;;0.97;100.00;100747.97;5109927;28;20080;-75
2021/11/29 01:12:47;;;;;;;5.32;3.50;;;;;;;0.98;100.00;100736.78;5109029;28;20088;-74
2021/11/29 01:15:16;;;;;;;4.85;3.00;;;;;;;0.95;100.00;100726.41;5109535;28;20038;-74
2021/11/29 01:17:41;;;;;;;3.22;2.40;;;;;;;0.93;100.00;100741.03;5109033;28;20461;-74
2021/11/29 01:20:08;;;;;;;4.35;2.63;;;;;;;0.93;100.00;100721.25;5107644;28;20023;-74
2021/11/29 01:22:34;;;;;;;7.88;2.92;;;;;;;0.94;100.00;100709.19;5109465;28;20115;-75
2021/11/29 01:24:59;;;;;;;6.60;2.95;;;;;;;0.98;100.00;100718.69;5108384;28;20069;-74
2021/11/29 01:27:25;;;;;;;4.65;2.50;;;;;;;1.00;100.00;100709.22;5108727;28;20031;-76
2021/11/29 01:29:50;;;;;;;5.50;2.65;;;;;;;1.00;100.00;100710.94;5108233;28;20032;-76
2021/11/29 01:32:15;;;;;;;6.85;2.83;;;;;;;0.94;100.00;100706.59;5109337;28;20019;-75
2021/11/29 01:34:41;;;;;;;6.68;3.00;;;;;;;0.88;100.00;100702.28;5109338;28;20020;-75
2021/11/29 01:37:06;;;;;;;6.43;3.10;;;;;;;0.84;100.00;100710.84;5108273;28;20031;-74
2021/11/29 01:39:32;;;;;;;6.88;3.58;;;;;;;0.82;100.00;100704.84;5109330;28;20039;-74
2021/11/29 01:41:58;;;;;;;5.07;3.35;;;;;;;0.83;100.00;100726.34;5109009;28;20035;-75
2021/11/29 01:44:23;;;;;;;6.75;3.70;;;;;;;0.84;100.00;100746.16;5106928;28;20015;-75
2021/11/29 01:46:49;;;;;;;5.70;3.35;;;;;;;0.90;100.00;100764.25;5108195;28;20044;-76
2021/11/29 01:49:14;;;;;;;9.15;3.63;;;;;;;0.92;100.00;100773.75;5108040;28;20027;-76
2021/11/29 01:51:40;;;;;;;6.32;3.88;;;;;;;0.93;100.00;100777.19;5109398;28;20027;-76
2021/11/29 01:54:05;;;;;;;6.28;3.63;;;;;;;0.85;100.00;100747.88;5109211;28;20056;-76
2021/11/29 01:56:31;;;;;;;5.80;3.70;;;;;;;0.85;100.00;100768.53;5106971;28;20096;-75
2021/11/29 01:58:56;;;;;;;4.15;3.30;;;;;;;0.86;100.00;100760.81;5107910;28;20020;-76
2021/11/29 02:01:25;;;;;;;5.93;3.72;;;;;;;0.84;100.00;100735.81;5108708;28;20516;-76
2021/11/29 02:03:54;;;;;;;5.80;3.97;;;;;;;0.84;100.00;100726.34;5109136;28;20024;-75
2021/11/29 02:06:21;;;;;;;6.30;3.70;;;;;;;0.88;100.00;100724.66;5108251;28;20090;-76
2021/11/29 02:08:46;;;;;;;7.32;3.55;;;;;;;0.94;100.00;100716.94;5108678;28;20024;-75
2021/11/29 02:11:11;;;;;;;6.20;3.28;;;;;;;1.00;100.00;100716.09;5108073;28;20027;-75
2021/11/29 02:13:37;;;;;;;6.32;3.60;;;;;;;1.01;100.00;100718.69;5108923;28;20118;-75
2021/11/29 02:16:04;;;;;;;5.82;3.40;;;;;;;1.00;100.00;100706.63;5110269;28;20039;-75
2021/11/29 02:18:32;;;;;;;4.20;3.38;;;;;;;1.01;100.00;100712.69;5111910;28;20054;-75
2021/11/29 02:21:03;;;;;;;7.15;3.60;;;;;;;0.95;100.00;100704.00;5111535;28;20027;-74
2021/11/29 02:23:28;;;;;;;7.18;4.10;;;;;;;0.95;100.00;100705.75;5113434;28;20080;-75
2021/11/29 02:25:54;;;;;;;4.97;4.10;;;;;;;0.95;100.00;100710.91;5112708;28;20020;-75
2021/11/29 02:28:20;;;;;;;6.13;4.03;;;;;;;0.92;100.00;100709.19;5110955;28;20102;-75
2021/11/29 02:30:46;;;;;;;5.20;4.00;;;;;;;0.85;100.00;100706.56;5113232;28;20066;-75
2021/11/29 02:33:11;;;;;;;8.38;4.22;;;;;;;0.78;100.00;100706.53;5108648;28;20106;-75
2021/11/29 02:35:37;;;;;;;6.60;4.28;;;;;;;0.76;100.00;100700.50;5112071;28;20055;-74
2021/11/29 02:38:02;;;;;;;7.95;5.07;;;;;;;0.74;100.00;100703.91;5109113;27;20099;-75
2021/11/29 02:40:27;;;;;;;8.80;4.78;;;;;;;0.76;100.00;100697.91;5113154;28;20173;-75
2021/11/29 02:42:53;;;;;;;7.07;5.18;;;;;;;0.80;100.00;100702.22;5090966;28;20032;-75
2021/11/29 02:45:18;;;;;;;6.80;5.22;;;;;;;0.86;100.00;100698.81;5111903;28;20039;-74
2021/11/29 02:47:43;;;;;;;6.13;5.47;;;;;;;0.88;100.00;100715.19;5110252;28;20085;-75
2021/11/29 02:50:08;;;;;;;9.32;4.97;;;;;;;0.91;100.00;100704.88;5112610;28;20054;-74
2021/11/29 02:52:34;;;;;;;8.18;4.85;;;;;;;0.90;100.00;100705.72;5112724;28;20115;-75
2021/11/29 02:54:59;;;;;;;7.47;5.47;;;;;;;0.86;100.00;100704.00;5111462;27;20389;-75
2021/11/29 02:57:25;;;;;;;7.38;4.80;;;;;;;0.80;100.00;100697.06;5111713;28;20027;-75
2021/11/29 02:59:50;;;;;;;10.75;5.57;;;;;;;0.79;100.00;100699.63;5110957;28;20465;-75
2021/11/29 03:02:18;;;;;;;8.75;5.93;;;;;;;0.78;100.00;100705.66;5112436;28;20028;-75
2021/11/29 03:04:45;;;;;;;6.80;4.97;;;;;;;0.74;100.00;100709.94;5111265;28;20034;-75
2021/11/29 03:07:11;;;;;;;7.22;5.05;;;;;;;0.76;100.00;100718.56;5111759;27;20027;-75
2021/11/29 03:09:37;;;;;;;8.70;5.65;;;;;;;0.77;100.00;100729.75;5112838;28;20484;-74
2021/11/29 03:12:04;;;;;;;8.25;5.88;;;;;;;0.73;100.00;100723.72;5108999;28;20027;-76
2021/11/29 03:14:31;;;;;;;7.60;5.88;;;;;;;0.71;100.00;100725.44;5112399;28;20043;-75
2021/11/29 03:16:57;;;;;;;6.97;5.60;;;;;;;0.67;100.00;100739.19;5111264;28;20058;-75
2021/11/29 03:19:30;;;;;;;7.10;6.10;;;;;;;0.64;100.00;100741.72;5111999;28;20020;-74
2021/11/29 03:21:56;;;;;;;8.60;6.05;;;;;;;0.70;100.00;100748.66;5106959;28;20035;-75
2021/11/29 03:24:21;;;;;;;10.40;6.43;;;;;;;0.68;100.00;100768.44;5110234;28;20031;-73
2021/11/29 03:26:46;;;;;;;9.90;6.80;;;;;;;0.69;100.00;100765.84;5103803;28;20032;-74
2021/11/29 03:29:15;;;;;;;8.95;6.30;;;;;;;0.71;100.00;100764.16;5109856;28;20089;-75
2021/11/29 03:31:41;;;;;;;15.18;4.45;;;;;;;0.84;100.00;100775.41;5112212;28;20023;-75
2021/11/29 03:34:09;;;;;;;6.75;3.15;;;;;;;1.08;100.00;100759.19;5111791;28;20028;-75
2021/11/29 03:36:37;;;;;;;6.32;1.88;;;;;;;1.24;100.00;100748.91;5112082;27;20677;-75
2021/11/29 03:39:06;;;;;;;4.57;1.55;;;;;;;1.43;97.91;100757.63;5111078;28;20376;-75
2021/11/29 03:41:32;;;;;;;5.68;1.20;;;;;;;1.51;97.35;100747.31;5109609;28;20032;-74
2021/11/29 03:43:57;;;;;;;3.35;1.15;;;;;;;1.57;98.45;100755.06;5111712;28;20024;-75
2021/11/29 03:46:23;;;;;;;3.92;1.30;;;;;;;1.60;99.40;100744.72;5111286;28;20724;-75
2021/11/29 03:48:48;;;;;;;11.75;2.05;;;;;;;1.57;100.00;100735.25;5109706;28;20024;-74
2021/11/29 03:51:14;;;;;;;11.48;1.75;;;;;;;1.55;100.00;100736.09;5110060;28;20027;-75
2021/11/29 03:53:39;;;;;;;5.90;1.35;;;;;;;1.55;100.00;100736.97;5109775;28;20027;-75
2021/11/29 03:56:05;;;;;;;8.95;1.63;;;;;;;1.51;100.00;100732.63;5110975;28;20465;-75
2021/11/29 03:58:30;;;;;;;4.00;1.33;;;;;;;1.44;100.00;100734.34;5109724;28;20062;-74
2021/11/29 04:00:56;;;;;;;5.75;1.45;;;;;;;1.37;100.00;100736.94;5111014;28;20072;-76
2021/11/29 04:03:21;;;;;;;11.68;2.17;;;;;;;1.31;100.00;100737.75;5110442;28;20029;-75
2021/11/29 04:05:47;;;;;;;3.80;1.65;;;;;;;1.27;100.00;100741.19;5110067;27;20028;-76
2021/11/29 04:08:12;;;;;;;5.78;1.67;;;;;;;1.26;100.00;100739.47;5110511;27;20023;-76
2021/11/29 04:10:38;;;;;;;5.72;1.48;;;;;;;1.28;100.00;100750.69;5111321;28;20089;-76
2021/11/29 04:13:03;;;;;;;9.98;1.92;;;;;;;1.32;100.00;100752.41;5110997;28;20027;-76
2021/11/29 04:15:29;;;;;;;6.68;1.77;;;;;;;1.36;100.00;100751.56;5111168;28;20028;-75
2021/11/29 04:17:54;;;;;;;8.68;1.80;;;;;;;1.41;100.00;100755.00;5108880;28;20053;-75
2021/11/29 04:20:20;;;;;;;3.72;1.67;;;;;;;1.42;100.00;100751.56;5111148;28;20461;-75
2021/11/29 04:22:46;;;;;;;6.57;1.33;;;;;;;1.44;100.00;100760.22;5110614;28;20542;-74
2021/11/29 04:25:14;;;;;;;12.10;2.28;;;;;;;1.44;99.62;100769.69;5110803;28;20035;-75
2021/11/29 04:27:42;;;;;;;6.10;1.60;;;;;;;1.50;98.55;100777.47;5109479;28;20023;-74
2021/11/29 04:30:12;;;;;;;9.63;1.98;;;;;;;1.67;97.98;100787.00;5108104;28;20019;-75
2021/11/29 04:32:38;;;;;;;8.13;1.70;;;;;;;1.73;97.48;100769.75;5110772;28;20480;-75
2021/11/29 04:35:04;;;;;;;5.30;2.00;;;;;;;1.78;95.02;100754.25;5109952;28;20027;-75
2021/11/29 04:37:29;;;;;;;7.90;1.40;;;;;;;1.78;93.88;100754.25;5107492;28;20534;-75
2021/11/29 04:39:55;;;;;;;4.60;1.20;;;;;;;1.76;93.75;100758.56;5109920;28;20061;-75
2021/11/29 04:42:20;;;;;;;8.57;2.78;;;;;;;1.72;93.57;100751.66;5110846;28;20031;-75
2021/11/29 04:44:45;;;;;;;4.68;1.25;;;;;;;1.73;91.56;100756.84;5110420;28;20092;-75
2021/11/29 04:47:11;;;;;;;3.20;1.25;;;;;;;1.76;91.72;100769.78;5109702;28;20061;-75
2021/11/29 04:49:36;;;;;;;9.25;1.42;;;;;;;1.84;91.38;100785.31;5109718;28;20098;-74
2021/11/29 04:52:03;;;;;;;5.20;1.55;;;;;;;1.90;92.29;100787.06;5107423;28;20025;-76
2021/11/29 04:54:28;;;;;;;4.97;1.90;;;;;;;2.00;92.63;100791.38;5110865;28;20028;-75
2021/11/29 04:56:53;;;;;;;9.45;1.80;;;;;;;2.06;93.86;100791.38;5109347;28;20138;-74
2021/11/29 04:59:19;;;;;;;5.85;1.67;;;;;;;2.04;94.83;100777.56;5110290;28;20012;-76
2021/11/29 05:01:44;;;;;;;6.30;2.13;;;;;;;2.01;95.88;100772.41;5109390;28;20131;-74
2021/11/29 05:04:09;;;;;;;11.30;1.92;;;;;;;2.01;96.12;100771.53;5109539;28;20099;-74
2021/11/29 05:06:36;;;;;;;12.27;2.05;;;;;;;2.00;96.02;100775.84;5109429;28;20405;-74
2021/11/29 05:09:04;;;;;;;11.68;2.67;;;;;;;2.02;96.26;100770.69;5109435;28;20115;-74
2021/11/29 05:11:29;;;;;;;13.02;2.10;;;;;;;2.02;95.77;100768.97;5110675;28;20069;-76
2021/11/29 05:13:54;;;;;;;10.30;2.30;;;;;;;1.99;96.25;100768.94;5107897;28;20027;-76
2021/11/29 05:16:20;;;;;;;12.10;2.40;;;;;;;1.97;96.88;100770.66;5110115;28;20552;-76
2021/11/29 05:18:45;;;;;;;10.50;2.25;;;;;;;1.95;96.90;100764.66;5108801;28;20498;-75
2021/11/29 05:21:10;;;;;;;9.00;2.00;;;;;;;1.89;96.98;100770.66;5108249;28;20020;-76
2021/11/29 05:23:36;;;;;;;10.43;1.98;;;;;;;1.88;97.41;100781.00;5110212;28;20027;-74
2021/11/29 05:26:01;;;;;;;7.00;1.90;;;;;;;1.86;97.60;100782.72;5108457;28;20023;-75
2021/11/29 05:28:26;;;;;;;11.90;2.55;;;;;;;1.87;98.10;100789.63;5108411;28;20032;-75
2021/11/29 05:30:52;;;;;;;8.63;1.95;;;;;;;1.86;98.42;100791.38;5108911;28;20114;-75
2021/11/29 05:33:17;;;;;;;12.02;2.13;;;;;;;1.92;99.00;100804.31;5109875;28;20461;-76
2021/11/29 05:35:42;;;;;;;11.05;2.00;;;;;;;2.00;98.37;100812.09;5108177;28;20036;-74
2021/11/29 05:38:08;;;;;;;11.55;2.20;;;;;;;2.09;97.66;100832.78;5107907;28;20036;-75
2021/11/29 05:40:33;;;;;;;11.75;2.22;;;;;;;2.21;94.65;100836.28;5109750;28;20020;-74
2021/11/29 05:42:59;;;;;;;6.93;1.40;;;;;;;2.35;94.09;100844.06;5108756;28;20032;-75
2021/11/29 05:45:24;;;;;;;8.55;1.58;;;;;;;2.33;94.54;100841.47;5109445;28;20037;-75
2021/11/29 05:47:49;;;;;;;5.93;1.52;;;;;;;2.30;95.22;100851.81;5107934;28;20026;-76
2021/11/29 05:50:17;;;;;;;4.90;1.20;;;;;;;2.23;96.59;100853.53;5108179;28;20630;-74
2021/11/29 05:52:43;;;;;;;6.97;1.50;;;;;;;2.26;94.29;100842.31;5108781;28;20053;-75
2021/11/29 05:55:10;;;;;;;4.60;1.40;;;;;;;2.28;93.92;100822.47;5107331;28;20084;-74
2021/11/29 05:57:36;;;;;;;5.38;1.35;;;;;;;2.27;94.31;100831.09;5107242;28;20019;-75
2021/11/29 06:00:07;;;;;;;5.68;1.33;;;;;;;2.19;94.23;100819.88;5108597;28;20423;-75
2021/11/29 06:02:32;;;;;;;5.28;1.38;;;;;;;2.15;94.40;100820.75;5094511;28;20040;-76
2021/11/29 06:04:57;;;;;;;6.53;1.48;;;;;;;2.04;94.08;100815.53;5108389;27;20023;-75
2021/11/29 06:07:23;;;;;;;9.27;2.17;;;;;;;1.91;94.63;100825.84;5108277;28;20059;-76
2021/11/29 06:09:48;;;;;;;6.05;1.60;;;;;;;1.83;94.65;100824.13;5109100;28;20112;-75
2021/11/29 06:12:13;;;;;;;2.65;1.13;;;;;;;1.75;94.85;100822.34;5107596;28;20095;-75
2021/11/29 06:14:40;;;;;;;6.43;1.50;;;;;;;1.74;95.38;100830.13;5106712;28;20020;-75
2021/11/29 06:17:05;;;;;;;7.15;1.90;;;;;;;1.83;95.36;100831.88;5107164;28;20502;-74
2021/11/29 06:19:30;;;;;;;6.20;1.60;;;;;;;1.85;95.54;100832.72;5108456;28;20114;-75
2021/11/29 06:21:56;;;;;;;4.00;1.50;;;;;;;1.87;95.91;100833.59;5107750;28;20023;-75
2021/11/29 06:24:21;;;;;;;6.35;1.35;;;;;;;1.96;95.70;100843.97;5108855;28;20467;-75
2021/11/29 06:26:46;;;;;;;7.25;1.95;;;;;;;1.94;96.06;100875.00;5108896;28;20479;-75
2021/11/29 06:29:12;;;;;;;12.48;2.60;;;;;;;1.95;98.26;100875.88;5108092;28;20023;-75
2021/11/29 06:31:38;;;;;;;11.70;2.20;;;;;;;2.00;98.64;100870.69;5096285;28;20073;-75
2021/11/29 06:34:04;;;;;;;10.38;2.40;;;;;;;2.05;98.86;100856.09;5106820;28;20064;-75
2021/11/29 06:36:29;;;;;;;6.40;1.80;;;;;;;2.10;98.65;100846.59;5106915;28;20537;-75
2021/11/29 06:38:56;;;;;;;12.35;2.67;;;;;;;2.16;97.99;100848.31;5105521;28;20027;-74
2021/11/29 06:41:22;;;;;;;7.80;2.45;;;;;;;2.21;97.52;100852.66;5107397;28;20024;-76
2021/11/29 06:43:48;;;;;;;15.05;2.55;;;;;;;2.23;97.89;100860.41;5108195;28;20097;-75
2021/11/29 06:46:13;;;;;;;9.05;1.42;;;;;;;2.24;98.18;100867.31;5104005;28;20055;-75
2021/11/29 06:48:39;;;;;;;9.00;2.13;;;;;;;2.26;98.62;100870.78;5107405;28;20015;-74
2021/11/29 06:51:04;;;;;;;10.50;2.05;;;;;;;2.30;98.86;100858.72;5107003;28;20022;-75
2021/11/29 06:53:30;;;;;;;10.50;2.25;;;;;;;2.36;98.93;100866.50;5107827;28;20027;-75
2021/11/29 06:55:56;;;;;;;10.23;2.22;;;;;;;2.39;98.48;100866.47;5106117;28;20047;-75
2021/11/29 06:58:22;;;;;;;10.52;1.75;;;;;;;2.42;97.94;100864.75;5107333;28;20031;-75
2021/11/29 07:00:48;;;;;;;10.90;2.58;;;;;;;2.49;97.52;100880.31;5105773;28;20028;-74
2021/11/29 07:03:14;;;;;;;8.45;2.10;;;;;;;2.54;97.42;100874.28;5104155;28;20337;-75
2021/11/29 07:05:39;;;;;;;11.27;2.00;;;;;;;2.58;97.43;100878.59;5102024;28;20055;-75
2021/11/29 07:08:05;;;;;;;12.27;2.22;;;;;;;2.64;97.44;100876.88;5110348;28;20085;-75
2021/11/29 07:10:30;;;;;;;8.20;2.22;;;;;;;2.67;97.15;100872.56;5110406;28;20051;-76
2021/11/29 07:12:56;;;;;;;18.58;2.60;;;;;;;2.67;96.83;100880.31;5110645;28;20085;-74
2021/11/29 07:15:23;;;;;;;12.23;2.83;;;;;;;2.74;96.82;100892.41;5109785;28;20104;-75
2021/11/29 07:17:49;;;;;;;11.70;2.10;;;;;;;2.77;96.67;100901.03;5110147;28;20486;-74
2021/11/29 07:20:15;;;;;;;11.57;2.15;;;;;;;2.76;96.53;100900.19;5107168;28;20024;-74
2021/11/29 07:22:40;;;;;;;14.95;3.55;;;;;;;2.71;97.33;100900.16;5103487;28;20027;-74
2021/11/29 07:25:06;;;;;;;9.75;2.17;;;;;;;2.67;96.96;100908.81;5110887;28;20472;-75
2021/11/29 07:27:33;;;;;;;16.40;2.47;;;;;;;2.71;95.39;100905.34;5110754;28;20027;-76
2021/11/29 07:29:59;;;;;;;9.68;2.50;;;;;;;2.79;94.13;100907.09;5109600;28;20030;-75
2021/11/29 07:32:25;;;;;;;16.25;2.53;;;;;;;2.80;93.14;100903.63;5102428;28;20508;-76
2021/11/29 07:34:52;;;;;;;11.30;2.70;;;;;;;2.89;91.97;100914.00;5105702;28;20030;-75
2021/11/29 07:37:20;;;;;;;7.15;2.05;;;;;;;2.94;91.28;100907.09;5111024;28;20020;-77
2021/11/29 07:39:48;;;;;;;12.40;3.08;;;;;;;2.95;90.40;100908.81;5109573;28;20550;-74
2021/11/29 07:42:14;;;;;;;13.70;2.80;;;;;;;2.89;91.06;100906.22;5104368;28;20038;-75
2021/11/29 07:44:40;;;;;;;19.60;2.90;;;;;;;2.90;91.00;100906.25;5106464;28;20022;-76
2021/11/29 07:47:05;;;;;;;14.82;2.75;;;;;;;2.90;91.46;100913.13;5110340;28;20028;-74
2021/11/29 07:49:31;;;;;;;19.85;2.47;;;;;;;2.98;91.58;100920.94;5111189;28;20389;-76
2021/11/29 07:51:56;;;;;;;11.52;2.53;;;;;;;3.09;91.61;100918.31;5105083;28;20032;-74
2021/11/29 07:54:23;;;;;;;18.90;2.58;;;;;;;3.33;89.54;100922.63;5102213;28;20461;-74
2021/11/29 07:56:48;;;;;;;15.60;2.65;;;;;;;3.49;89.98;100923.44;5106600;28;20030;-75
2021/11/29 07:59:14;;;;;;;10.98;2.47;;;;;;;3.56;90.37;100927.75;5110009;28;20404;-74
2021/11/29 08:01:39;;;;;;;18.73;2.67;;;;;;;3.62;89.74;100932.06;5108119;28;20073;-74
2021/11/29 08:04:04;;;;;;;13.27;2.80;;;;;;;3.61;90.33;100931.19;5109494;28;20043;-73
2021/11/29 08:06:30;;;;;;;13.68;2.72;;;;;;;3.64;90.46;100941.56;5085898;28;20509;-75
2021/11/29 08:08:56;;;;;;;17.05;3.30;;;;;;;3.70;89.98;100941.53;5107840;28;20027;-75
2021/11/29 08:11:21;;;;;;;10.70;2.03;;;;;;;3.72;90.10;100945.00;5109573;28;20057;-74
2021/11/29 08:13:47;;;;;;;25.05;3.28;;;;;;;3.78;90.37;100943.25;5109874;28;20140;-73
2021/11/29 08:16:13;;;;;;;19.52;2.92;;;;;;;3.88;89.66;100942.34;5110003;28;20055;-74
2021/11/29 08:18:41;;;;;;;19.80;2.63;;;;;;;3.93;89.52;100943.22;5109780;28;20023;-75
2021/11/29 08:21:06;;;;;;;10.38;2.88;;;;;;;3.97;88.74;100944.91;5108916;28;20091;-73
2021/11/29 08:23:32;;;;;;;16.08;2.70;;;;;;;4.02;88.47;100937.13;5107621;28;20051;-74
2021/11/29 08:25:58;;;;;;;11.07;2.30;;;;;;;4.08;88.82;100942.28;5109777;28;20024;-74
2021/11/29 08:28:24;;;;;;;18.38;3.72;;;;;;;4.13;88.55;100950.91;5108164;28;20035;-76
2021/11/29 08:30:49;;;;;;;17.67;2.60;;;;;;;4.18;88.75;100961.25;5109990;28;20028;-75
2021/11/29 08:33:15;;;;;;;12.18;2.60;;;;;;;4.20;89.98;100967.31;5109372;28;20031;-76
2021/11/29 08:35:41;;;;;;;13.85;2.70;;;;;;;4.17;91.15;100959.56;5110309;28;20105;-75
2021/11/29 08:38:07;;;;;;;44.92;6.35;;;;;;;4.15;91.44;100961.28;5107148;28;20030;-74
2021/11/29 08:40:34;;;;;;;10.48;2.60;;;;;;;4.13;92.10;100971.69;5105565;28;20408;-75
2021/11/29 08:43:18;;;;;;;13.73;2.10;;;;;;;4.13;91.59;100968.22;5103354;28;20024;-73
2021/11/29 08:45:46;;;;;;;14.40;2.47;;;;;;;4.11;91.61;100967.38;5107284;28;20538;-73
2021/11/29 08:48:12;;;;;;;18.85;4.05;;;;;;;4.10;92.47;100968.22;5107854;28;20108;-74
2021/11/29 08:50:42;;;;;;;14.35;2.83;;;;;;;4.15;91.69;100974.25;5109297;28;20102;-74
2021/11/29 08:53:10;;;;;;;12.85;2.50;;;;;;;4.13;91.56;100981.19;5108867;28;20062;-73
2021/11/29 08:55:37;;;;;;;18.27;2.97;;;;;;;4.07;92.77;100979.50;5105642;28;20031;-73
2021/11/29 08:58:05;;;;;;;14.85;2.78;;;;;;;4.02;93.34;100994.22;5105571;28;20035;-74
2021/11/29 09:00:30;;;;;;;15.18;2.92;;;;;;;3.96;94.24;100997.69;5101823;28;20039;-74
2021/11/29 09:02:56;;;;;;;21.30;2.70;;;;;;;3.88;94.94;100996.84;5093602;28;20039;-73
2021/11/29 09:05:22;;;;;;;13.27;2.42;;;;;;;3.84;95.28;101010.69;5095394;28;20027;-73
2021/11/29 09:07:48;;;;;;;14.60;2.47;;;;;;;3.84;95.66;101016.75;5090446;28;20133;-74
2021/11/29 09:10:13;;;;;;;18.15;3.47;;;;;;;3.95;92.38;101008.94;5089296;28;20027;-73
2021/11/29 09:12:39;;;;;;;9.25;2.88;;;;;;;4.02;91.68;101013.25;5089851;28;20484;-73
2021/11/29 09:15:07;;;;;;;8.98;2.03;;;;;;;4.22;87.92;101014.03;5099130;28;20051;-73
2021/11/29 09:17:33;;;;;;;7.40;1.75;;;;;;;4.40;87.83;101016.56;5100459;28;20100;-73
2021/11/29 09:19:58;;;;;;;17.15;2.40;;;;;;;4.59;86.17;101019.94;5080505;28;20031;-73
2021/11/29 09:22:24;;;;;;;7.28;2.05;;;;;;;4.71;85.78;101025.94;5097536;28;20024;-73
2021/11/29 09:24:50;;;;;;;17.35;2.22;;;;;;;4.77;85.50;101039.75;5103983;28;20032;-73
2021/11/29 09:27:15;;;;;;;9.15;2.17;;;;;;;4.87;86.54;101031.91;5097207;28;20023;-72
2021/11/29 09:29:40;;;;;;;10.77;1.90;;;;;;;4.90;87.92;101037.09;5099218;28;20051;-75
2021/11/29 09:32:06;;;;;;;7.78;1.60;;;;;;;4.96;86.37;101050.94;5097941;28;20501;-73
2021/11/29 09:34:32;;;;;;;12.13;2.65;;;;;;;5.00;86.12;101044.81;5090082;28;20039;-73
2021/11/29 09:36:58;;;;;;;11.45;1.92;;;;;;;5.05;85.65;101051.72;5093054;28;20413;-74
2021/11/29 09:39:23;;;;;;;12.05;1.48;;;;;;;5.06;84.54;101033.53;5090260;28;20032;-74
2021/11/29 09:41:50;;;;;;;8.85;2.10;;;;;;;5.11;84.25;101049.06;5095442;28;20036;-75
2021/11/29 09:44:15;;;;;;;12.60;2.35;;;;;;;5.17;86.12;101052.53;5120265;27;20031;-75
2021/11/29 09:46:40;;;;;;;5.60;1.63;;;;;;;5.28;86.91;101065.44;5099208;28;20020;-76
2021/11/29 09:49:07;;;;;;;12.15;2.80;;;;;;;5.14;88.26;101062.06;5088684;28;20032;-76
2021/11/29 09:51:34;;;;;;;16.17;3.63;;;;;;;5.04;88.27;101066.47;5094527;28;20030;-76
2021/11/29 09:54:00;;;;;;;5.57;1.73;;;;;;;4.93;87.69;101063.94;5103896;28;20185;-75
2021/11/29 09:56:26;;;;;;;9.85;2.42;;;;;;;4.87;88.18;101069.16;5108271;28;20165;-75
2021/11/29 09:58:51;;;;;;;13.38;2.30;;;;;;;4.84;88.90;101071.78;5108303;28;20500;-74
2021/11/29 10:01:17;;;;;;;9.80;2.25;;;;;;;4.93;89.11;101074.31;5108775;28;20038;-76
2021/11/29 10:03:42;;;;;;;15.30;2.50;;;;;;;4.86;89.77;101077.81;5107266;28;20118;-75
2021/11/29 10:06:08;;;;;;;9.75;1.95;;;;;;;4.71;91.74;101077.91;5107996;28;20140;-74
2021/11/29 10:08:39;;;;;;;8.18;2.00;;;;;;;4.58;92.40;101077.97;5093270;28;20036;-75
2021/11/29 10:11:17;;;;;;;13.45;2.67;;;;;;;4.60;91.99;101081.44;5088094;28;20038;-75
2021/11/29 10:13:58;;;;;;;7.28;1.88;;;;;;;4.66;92.05;101076.22;5104100;28;20058;-75
2021/11/29 10:16:41;;;;;;;9.27;2.33;;;;;;;4.74;92.48;101076.16;5096735;28;20538;-74
2021/11/29 10:19:11;;;;;;;9.65;1.95;;;;;;;4.76;91.68;101074.41;5094219;28;20084;-76
2021/11/29 10:21:37;;;;;;;11.73;2.65;;;;;;;4.78;90.75;101075.28;5106932;28;20495;-75
2021/11/29 10:24:03;;;;;;;12.23;2.33;;;;;;;4.85;90.49;101076.97;5105117;28;20429;-74
2021/11/29 10:26:32;;;;;;;10.73;2.53;;;;;;;5.10;88.06;101086.38;5098763;28;20016;-75
2021/11/29 10:29:00;;;;;;;10.77;2.30;;;;;;;5.23;88.68;101095.81;5106238;28;20469;-75
2021/11/29 10:31:29;;;;;;;6.75;1.45;;;;;;;5.16;89.95;101087.19;5108767;28;20022;-74
2021/11/29 10:34:07;;;;;;;12.80;2.20;;;;;;;5.01;91.44;101088.16;5104670;28;20381;-74
2021/11/29 10:36:45;;;;;;;11.15;2.28;;;;;;;4.94;91.85;101102.06;5104041;28;20377;-75
2021/11/29 10:39:13;;;;;;;9.65;2.78;;;;;;;4.92;90.95;101100.34;5110671;28;20027;-74
2021/11/29 10:41:42;;;;;;;9.50;2.10;;;;;;;4.88;91.87;101107.28;5112360;28;20536;-74
2021/11/29 10:44:12;;;;;;;8.75;2.15;;;;;;;4.82;91.71;101102.97;5109265;28;20015;-74
2021/11/29 10:46:40;;;;;;;6.18;1.52;;;;;;;4.79;92.61;101099.53;5112756;28;20020;-75
2021/11/29 10:49:16;;;;;;;6.18;1.08;;;;;;;4.83;93.40;101096.91;5110482;28;20048;-74
2021/11/29 10:51:44;;;;;;;6.00;1.42;;;;;;;4.91;92.37;101102.09;5109583;28;20496;-74
2021/11/29 10:54:12;;;;;;;4.95;1.17;;;;;;;4.99;92.91;101095.09;5112249;28;20031;-75
2021/11/29 10:56:39;;;;;;;8.07;1.52;;;;;;;5.03;92.97;101098.53;5110861;28;20031;-75
2021/11/29 10:59:09;;;;;;;5.70;1.10;;;;;;;5.08;93.34;101095.91;5109718;28;20072;-73
2021/11/29 11:01:38;;;;;;;4.57;0.95;;;;;;;5.22;94.19;101106.22;5097664;28;20116;-74
2021/11/29 11:04:23;;;;;;;3.97;1.20;;;;;;;5.40;92.98;101105.25;5106084;28;20027;-75
2021/11/29 11:07:11;;;;;;;7.90;1.88;;;;;;;5.52;90.09;101097.34;5108381;28;20088;-75
2021/11/29 11:09:39;;;;;;;15.13;2.65;;;;;;;5.46;90.60;101100.84;5105252;28;20024;-73
2021/11/29 11:12:15;;;;;;;9.75;2.03;;;;;;;5.29;92.83;101113.97;5088421;28;20442;-74
2021/11/29 11:14:50;;;;;;;6.28;1.52;;;;;;;5.11;94.08;101111.47;5103383;28;20380;-74
2021/11/29 11:17:15;;;;;;;9.15;1.73;;;;;;;4.89;94.31;101121.13;5098406;28;20039;-73
2021/11/29 11:19:49;;;;;;;6.80;1.60;;;;;;;4.75;95.79;101126.41;5102023;28;20031;-74
2021/11/29 11:22:32;;;;;;;3.77;1.60;;;;;;;4.64;96.49;101123.84;5100032;28;20028;-73